Van Vleck, TX

9:51 PM CDT on September 29, 2016 (GMT -0500)
Bay City

Weather History for KBYY - September, 2012

Change the Weather History Date:

Saturday, September 29, 2012

  Actual Average (KLBX) Record (KLBX)
Temperature  
Mean Temperature 79 °F -  
Max Temperature 85 °F 83 °F 95 °F (2005)
Min Temperature 73 °F 64 °F 52 °F (2000)
Cooling Degree Days 14    
Growing Degree Days 29 (Base 50)    
Moisture  
Dew Point 77 °F    
Average Humidity 96    
Maximum Humidity 100    
Minimum Humidity 72    
Precipitation  
Precipitation 1.39 in - - ()
Sea Level Pressure  
Sea Level Pressure 29.83 in    
Wind  
Wind Speed 6 mph (SE)    
Max Wind Speed 16 mph    
Max Gust Speed 25 mph    
Visibility 8 miles    
Events Rain    
Averages and records for this station are not official NWS values.
T = Trace of Precipitation, MM = Missing Value Source: NWS Daily Summary

Daily Weather History Graph

Daily Weather History Graph

Search for Another Location

Airport or City:

Trip Planner

Search our weather history database for the weather conditions in past years. The results will help you decide how hot, cold, wet, or windy it might be!

Date:

Astronomy

Sep. 29, 2012 Rise Set
Actual Time 7:15 AM CDT 7:10 PM CDT
Civil Twilight 6:52 AM CDT 7:34 PM CDT
Nautical Twilight 6:24 AM CDT 8:01 PM CDT
Astronomical Twilight 5:57 AM CDT 8:29 PM CDT
Moon 6:48 PM CDT (9/29) 6:46 AM CDT (9/29)
Length of Visible Light 12h 42m
Length of Day
11h 55m
Full, 100% of the Moon is Illuminated
Sep 29
Full
Sep 29
Full
Oct 8
Last Quarter
Oct 15
New
Oct 21
First Quarter

Hourly Weather History & Observations

Time (CDT) Temp. Heat Index Dew Point Humidity Pressure Visibility Wind Dir Wind Speed Gust Speed Precip Events Conditions
12:15 AM 76.1 °F - 76.1 °F 100% 29.94 in 10.0 mi East 3.5 mph - N/A   Scattered Clouds
12:35 AM 76.1 °F - 76.1 °F 100% 29.93 in 10.0 mi East 4.6 mph - N/A   Clear
12:55 AM 76.3 °F - 76.3 °F 100% 29.92 in 10.0 mi East 3.5 mph - N/A   Clear
1:15 AM 76.3 °F - 76.3 °F 100% 29.92 in 10.0 mi East 3.5 mph - N/A   Clear
1:35 AM 76.3 °F - 76.3 °F 100% 29.92 in 10.0 mi East 4.6 mph - N/A   Scattered Clouds
1:55 AM 76.3 °F - 76.3 °F 100% 29.92 in 10.0 mi ESE 3.5 mph - N/A   Mostly Cloudy
2:15 AM 76.6 °F - 76.6 °F 100% 29.92 in 10.0 mi ESE 4.6 mph - N/A   Mostly Cloudy
2:35 AM 77.2 °F - 77.2 °F 100% 29.90 in 10.0 mi ESE 4.6 mph - N/A   Scattered Clouds
2:55 AM 77.5 °F - 77.5 °F 100% 29.90 in 10.0 mi East 3.5 mph - N/A   Scattered Clouds
3:15 AM 77.9 °F - 77.9 °F 100% 29.90 in 10.0 mi East 4.6 mph - N/A   Overcast
3:35 AM 77.9 °F - 77.9 °F 100% 29.89 in 10.0 mi ESE 3.5 mph - N/A   Overcast
3:55 AM 78.1 °F - 78.1 °F 100% 29.89 in 10.0 mi ESE 3.5 mph - N/A Rain Light Rain
4:15 AM 78.3 °F - 78.3 °F 100% 29.88 in 7.0 mi Calm Calm - 0.01 in Rain Rain
4:35 AM 77.9 °F - 77.9 °F 100% 29.88 in 7.0 mi East 3.5 mph - 0.02 in Rain Light Rain
4:55 AM 77.4 °F - 77.4 °F 100% 29.88 in 7.0 mi East 3.5 mph - 0.03 in Rain Light Rain
5:15 AM 77.0 °F - 77.0 °F 100% 29.90 in 7.0 mi SSW 16.1 mph 19.6 mph 0.02 in Rain Rain
5:35 AM 74.5 °F - 74.5 °F 100% 29.89 in 7.0 mi Calm Calm - 0.08 in Rain Rain
5:55 AM 73.9 °F - 73.9 °F 100% 29.88 in 5.0 mi NW 3.5 mph - 0.14 in Rain Rain
6:15 AM 73.8 °F - 73.8 °F 100% 29.88 in 5.0 mi NW 3.5 mph - 0.07 in Rain Heavy Rain
6:35 AM 73.6 °F - 73.6 °F 100% 29.89 in 5.0 mi Calm Calm - 0.12 in Rain Rain
6:55 AM 74.1 °F - 74.1 °F 100% 29.89 in 4.0 mi Calm Calm - 0.19 in Rain Rain
7:15 AM 74.3 °F - 74.3 °F 100% 29.90 in 2.5 mi SSE 6.9 mph 18.4 mph 0.17 in Rain Heavy Rain
7:35 AM 74.1 °F - 74.1 °F 100% 29.90 in 5.0 mi SE 3.5 mph - 0.31 in Rain Rain
7:55 AM 73.8 °F - 73.8 °F 100% 29.91 in 3.0 mi Calm Calm - 0.37 in Rain Rain
8:15 AM 73.8 °F - 73.8 °F 100% 29.90 in 5.0 mi WNW 3.5 mph - 0.05 in Rain Rain
8:35 AM 74.1 °F - 74.1 °F 100% 29.93 in 5.0 mi SW 5.8 mph - 0.11 in Rain Rain
8:55 AM 74.3 °F - 74.3 °F 100% 29.92 in 2.0 mi SSE 5.8 mph - 0.42 in Rain Heavy Rain
9:15 AM 74.3 °F - 74.3 °F 100% 29.91 in 3.0 mi Calm Calm - 0.10 in Rain Rain
9:35 AM 74.5 °F - 74.5 °F 100% 29.91 in 10.0 mi SE 4.6 mph - 0.11 in Rain Light Rain
9:55 AM 74.8 °F - 74.8 °F 100% 29.90 in 7.0 mi ESE 5.8 mph - 0.12 in Rain Light Rain
10:15 AM 75.2 °F - 75.2 °F 100% 29.90 in 10.0 mi ESE 6.9 mph - N/A   Light Drizzle
10:35 AM 75.4 °F - 75.4 °F 100% 29.90 in 10.0 mi ESE 9.2 mph - N/A   Clear
10:55 AM 75.9 °F - 75.9 °F 100% 29.90 in 10.0 mi SE 6.9 mph - N/A   Mostly Cloudy
11:15 AM 76.6 °F - 76.6 °F 100% 29.90 in 10.0 mi SE 6.9 mph - N/A Rain Light Rain
11:35 AM 77.0 °F - 77.0 °F 100% 29.90 in 7.0 mi SE 6.9 mph - N/A   Overcast
11:55 AM 77.0 °F - 77.0 °F 100% 29.89 in 10.0 mi ESE 8.1 mph - N/A   Overcast
12:15 PM 77.9 °F - 77.9 °F 100% 29.88 in 10.0 mi SE 8.1 mph - N/A   Overcast
12:35 PM 79.0 °F - 79.0 °F 100% 29.87 in 10.0 mi ESE 8.1 mph - N/A   Mostly Cloudy
12:55 PM 80.4 °F 88.7 °F 80.4 °F 100% 29.86 in 10.0 mi SE 10.4 mph - N/A Rain Rain
1:15 PM 81.3 °F 91.2 °F 80.2 °F 97% 29.84 in 10.0 mi SE 10.4 mph - N/A   Overcast
1:35 PM 82.8 °F 94.6 °F 80.1 °F 92% 29.83 in 10.0 mi SE 10.4 mph - N/A   Overcast
1:55 PM 84.6 °F 94.7 °F 77.0 °F 78% 29.82 in 10.0 mi SE 12.7 mph 17.3 mph N/A   Overcast
2:15 PM 84.2 °F 92.6 °F 75.6 °F 75% 29.81 in 10.0 mi SSE 11.5 mph 21.9 mph N/A   Overcast
2:35 PM 83.5 °F 92.9 °F 77.2 °F 81% 29.79 in 10.0 mi SE 11.5 mph - N/A   Overcast
2:55 PM 84.6 °F 95.5 °F 77.9 °F 80% 29.78 in 10.0 mi SSE 15.0 mph 20.7 mph N/A   Mostly Cloudy
3:15 PM 85.1 °F 93.7 °F 75.0 °F 72% 29.77 in 10.0 mi SSE 13.8 mph 17.3 mph N/A   Mostly Cloudy
3:35 PM 84.0 °F 92.2 °F 75.2 °F 75% 29.77 in 10.0 mi SE 11.5 mph - N/A   Overcast
3:55 PM 84.6 °F 93.2 °F 75.6 °F 74% 29.76 in 10.0 mi SE 11.5 mph - N/A   Overcast
4:15 PM 83.8 °F 92.1 °F 75.6 °F 76% 29.75 in 10.0 mi SE 13.8 mph 19.6 mph N/A   Overcast
4:35 PM 82.6 °F 90.2 °F 75.7 °F 80% 29.75 in 10.0 mi SSE 15.0 mph 20.7 mph N/A   Overcast
4:55 PM 81.0 °F 86.7 °F 75.0 °F 82% 29.75 in 10.0 mi SSE 12.7 mph 21.9 mph N/A   Overcast
5:15 PM 79.9 °F - 74.8 °F 85% 29.74 in 10.0 mi SSE 11.5 mph 17.3 mph N/A   Overcast
5:35 PM 79.0 °F - 76.8 °F 93% 29.73 in 10.0 mi SE 13.8 mph - N/A   Overcast
5:55 PM 79.2 °F - 79.2 °F 100% 29.74 in 10.0 mi SE 10.4 mph 16.1 mph N/A   Overcast
6:15 PM 78.8 °F - 78.8 °F 100% 29.73 in 10.0 mi SE 11.5 mph - N/A   Overcast
6:35 PM 78.4 °F - 78.4 °F 100% 29.74 in 5.0 mi SE 9.2 mph - 0.01 in Rain Rain
6:55 PM 77.5 °F - 77.5 °F 100% 29.74 in 10.0 mi SE 6.9 mph - 0.02 in Rain Light Rain
7:15 PM 77.2 °F - 77.2 °F 100% 29.74 in 10.0 mi SE 11.5 mph - N/A   Overcast
7:35 PM 77.0 °F - 77.0 °F 100% 29.74 in 10.0 mi SSE 8.1 mph - N/A   Overcast
7:55 PM 77.2 °F - 77.2 °F 100% 29.75 in 4.0 mi SSE 4.6 mph - 0.08 in Rain Rain
8:15 PM 77.0 °F - 77.0 °F 100% 29.75 in 7.0 mi SE 3.5 mph - N/A Rain Rain
8:35 PM 77.2 °F - 77.2 °F 100% 29.73 in 10.0 mi SE 10.4 mph - 0.02 in   Light Drizzle
8:55 PM 77.7 °F - 77.7 °F 100% 29.72 in 7.0 mi SSE 8.1 mph - 0.02 in Rain Light Rain
9:15 PM 78.3 °F - 78.3 °F 100% 29.71 in 10.0 mi SSE 13.8 mph 25.3 mph N/A Rain Light Rain
9:35 PM 78.3 °F - 78.3 °F 100% 29.72 in 10.0 mi SSE 9.2 mph - N/A   Overcast
9:55 PM 78.3 °F - 78.3 °F 100% 29.72 in 10.0 mi SSE 9.2 mph - N/A   Overcast
10:15 PM 78.8 °F - 78.8 °F 100% 29.72 in 7.0 mi South 9.2 mph - N/A   Overcast
10:35 PM 79.0 °F - 79.0 °F 100% 29.73 in 10.0 mi South 16.1 mph 21.9 mph N/A   Mostly Cloudy
10:55 PM 78.4 °F - 78.4 °F 100% 29.75 in 10.0 mi South 10.4 mph - N/A   Overcast
11:15 PM 78.4 °F - 78.4 °F 100% 29.74 in 10.0 mi SSW 10.4 mph - N/A   Overcast
11:35 PM 78.3 °F - 78.3 °F 100% 29.74 in 10.0 mi SSW 9.2 mph - N/A   Mostly Cloudy
11:55 PM 78.1 °F - 78.1 °F 100% 29.73 in 10.0 mi South 9.2 mph 16.1 mph N/A   Mostly Cloudy